Česky Dansk Deutsch English Español Suomi Français Magyar Italiano Nederlands norsk Polski Português svenska Türkçe

 

Het Weer

Vichy (Frankrijk)

16:00, 31 augustus 2012 (GMT)

NWNNE
WE
SWSSE
Home            
Vichy Clermont-Ferrand Saint-Yan Montlucon / Gueret Nevers St-Etienne Boutheon Macon Avord Le Puy Bourges Lyon / Bron Lyon / Satolas Chateauroux Amberieu Aurillac Grenoble / St. Geoirs Limoges Dijon Auxerre Romorantin Dole Tavaux Mende / Brenoux Brive

Om een weerknop op uw website of weblog te plaatsen, copieer onderstaande code en plak die in uw pagina. In het eerste vakje staat HTML-code, in het tweede vakje UBB-code.


Add to Google

Details

Wind speed:3 bf, 8 kn, 4.1 m/s, 9.2 miles/h, 14.8 km/h
Wind direction:WNW, 300° - N, 010°
Visibility:Greater than 10000 m, 10 km, 32800 ft, 6.2 miles
Clouds:Aufgelockert bewölkt at 3000 ft, 914 m
Durchbrochene Bewölkung at 4000 ft, 1219 m
Temperature:16°C, 61°F
Dew-point:6°C, 43°F
Atmospheric pressure:1026 hPa, 769.6 mmHg, 30.30 inHg, 1.013 atm
Relative humidity:51.4 %
METAR:LFLV 311600Z 33008KT 300V010 9999 SCT030 BKN040 16/06 Q1026

Snelkoppelingen

Actuele weersinformatie van de hele wereld. Voeg locaties toe met het plus (+) symbool. Deze snelkoppelingen kunnen worden toegevoegd aan Google.

Lid van de Technetium groep

website free tracking
StatCounter NetStat W3C Validator

19-10-2018 09:45:24
astro.technetium.be money.technetium.be phote.technetium.be tafeltennistafel.technetium.be www.ligfiets.net